createdAt,value
2023-04-11T08:40:07.508Z,10.97
2023-04-11T08:43:00.296Z,11.27
2023-04-11T08:45:46.214Z,11.10
2023-04-11T08:48:33.113Z,11.14
2023-04-11T08:51:27.076Z,11.05
2023-04-11T08:54:14.930Z,10.98
2023-04-11T08:57:00.612Z,11.55
2023-04-11T08:59:53.527Z,11.25
2023-04-11T09:03:03.810Z,11.06
2023-04-11T09:05:50.455Z,11.75
2023-04-11T09:08:39.528Z,11.45
2023-04-11T09:11:27.238Z,11.61
2023-04-11T09:14:13.318Z,11.62
2023-04-11T09:17:01.206Z,11.73
2023-04-11T09:19:49.145Z,12.06
2023-04-11T09:22:36.245Z,11.86
2023-04-11T09:25:23.310Z,11.34
2023-04-11T09:28:11.102Z,11.80
2023-04-11T09:30:56.887Z,11.57
2023-04-11T09:33:58.892Z,11.88
2023-04-11T09:36:54.655Z,11.77
2023-04-11T09:39:41.419Z,11.53
2023-04-11T09:42:27.891Z,11.87
2023-04-11T09:45:18.935Z,11.90
2023-04-11T09:48:05.584Z,12.39
2023-04-11T09:50:52.174Z,12.04
2023-04-11T09:53:37.895Z,11.84
2023-04-11T09:56:26.711Z,12.67
2023-04-11T09:59:15.856Z,12.31
2023-04-11T10:02:04.363Z,12.46
2023-04-11T10:04:51.541Z,12.31
2023-04-11T10:08:00.765Z,12.25
2023-04-11T10:10:46.664Z,12.45
2023-04-11T10:13:43.753Z,12.76
2023-04-11T10:16:34.131Z,12.54
2023-04-11T10:19:20.640Z,12.75
2023-04-11T10:22:06.915Z,12.54
2023-04-11T10:25:28.929Z,12.81
2023-04-11T10:28:29.822Z,12.61
2023-04-11T10:31:17.792Z,12.22
2023-04-11T10:34:21.390Z,12.54
2023-04-11T10:37:10.678Z,12.54
2023-04-11T10:40:04.264Z,12.89
2023-04-11T10:42:50.679Z,12.91
2023-04-11T10:45:40.036Z,13.02
2023-04-11T10:48:26.262Z,12.69
2023-04-11T10:51:27.087Z,12.97
2023-04-11T10:54:27.059Z,13.01
2023-04-11T10:57:16.041Z,13.44
2023-04-11T11:00:10.881Z,13.36
2023-04-11T11:02:57.444Z,12.81
2023-04-11T11:05:44.024Z,12.87
2023-04-11T11:08:41.867Z,13.34
2023-04-11T11:11:28.200Z,13.20
2023-04-11T11:14:28.414Z,13.15
2023-04-11T11:17:16.296Z,13.33
2023-04-11T11:20:02.003Z,13.33
2023-04-11T11:23:01.773Z,13.21
2023-04-11T11:25:55.283Z,13.16
2023-04-11T11:28:48.830Z,12.96
2023-04-11T11:31:39.640Z,12.95
2023-04-11T11:34:31.146Z,12.77
2023-04-11T11:37:17.117Z,13.26
2023-04-11T11:40:09.368Z,13.43
2023-04-11T11:42:55.030Z,13.40
2023-04-11T11:45:41.811Z,13.27
2023-04-11T11:48:27.487Z,12.95
2023-04-11T11:51:14.744Z,13.29
2023-04-11T11:54:09.749Z,13.15
2023-04-11T11:56:56.446Z,13.33
2023-04-11T11:59:42.755Z,12.96
2023-04-11T12:02:29.734Z,12.74
2023-04-11T12:05:16.656Z,12.62
2023-04-11T12:08:06.193Z,12.41
2023-04-11T12:10:52.786Z,12.48
2023-04-11T12:13:39.269Z,12.67
2023-04-11T12:16:25.910Z,12.05
2023-04-11T12:19:13.460Z,12.20
2023-04-11T12:21:59.520Z,12.35
2023-04-11T12:24:46.656Z,12.17
2023-04-11T12:27:36.841Z,11.95
2023-04-11T12:30:23.247Z,11.84
2023-04-11T12:33:09.527Z,12.22
2023-04-11T12:35:56.431Z,12.21
2023-04-11T12:38:42.577Z,12.05
2023-04-11T12:41:32.517Z,11.81
2023-04-11T12:44:19.001Z,11.98
2023-04-11T12:47:05.883Z,12.23
2023-04-11T12:49:51.789Z,12.05
2023-04-11T12:52:38.577Z,12.05
2023-04-11T12:55:24.477Z,12.53
2023-04-11T12:58:10.609Z,12.29
2023-04-11T13:00:56.409Z,12.49
2023-04-11T13:03:42.703Z,12.02
2023-04-11T13:06:30.187Z,12.38
2023-04-11T13:09:16.902Z,12.72
2023-04-11T13:12:03.219Z,12.03
2023-04-11T13:14:49.157Z,12.23
2023-04-11T13:17:35.258Z,11.82
2023-04-11T13:20:22.784Z,12.34
2023-04-11T13:23:09.919Z,11.82
2023-04-11T13:25:57.539Z,12.26
2023-04-11T13:28:43.340Z,11.34
2023-04-11T13:31:29.806Z,11.60
2023-04-11T13:34:16.651Z,11.54
2023-04-11T13:37:02.860Z,11.81
2023-04-11T13:39:48.809Z,11.65
2023-04-11T13:42:35.403Z,11.27
2023-04-11T13:45:21.240Z,11.70
2023-04-11T13:48:07.824Z,11.87
2023-04-11T13:50:57.620Z,11.12
2023-04-11T13:53:46.730Z,11.17
2023-04-11T13:56:36.508Z,11.43
2023-04-11T13:59:24.065Z,11.02
2023-04-11T14:02:10.146Z,11.43
2023-04-11T14:04:56.380Z,10.89
2023-04-11T14:07:42.278Z,10.69
2023-04-11T14:10:28.512Z,10.91
2023-04-11T14:13:14.304Z,11.29
2023-04-11T14:16:08.546Z,11.05
2023-04-11T14:18:55.395Z,10.71
2023-04-11T14:21:41.710Z,10.59
2023-04-11T14:24:27.971Z,10.54
2023-04-11T14:27:14.835Z,10.56
2023-04-11T14:30:00.664Z,10.89
2023-04-11T14:32:47.148Z,10.62
2023-04-11T14:35:33.115Z,10.36
2023-04-11T14:38:19.749Z,10.76
2023-04-11T14:41:06.501Z,10.69
2023-04-11T14:43:52.496Z,10.06
2023-04-11T14:46:38.618Z,10.38
2023-04-11T14:49:25.935Z,10.15
2023-04-11T14:52:11.930Z,10.60
2023-04-11T14:54:58.269Z,9.80
2023-04-11T14:57:46.628Z,10.02
2023-04-11T15:00:33.021Z,9.92
2023-04-11T15:03:19.262Z,10.32
2023-04-11T15:06:06.862Z,9.54
2023-04-11T15:08:52.619Z,9.88
2023-04-11T15:11:39.202Z,9.88
2023-04-11T15:14:29.516Z,10.17
2023-04-11T15:17:15.956Z,10.28
2023-04-11T15:20:01.520Z,10.24
2023-04-11T15:22:48.467Z,9.87
2023-04-11T15:25:34.442Z,9.80
2023-04-11T15:28:21.601Z,9.74
2023-04-11T15:31:09.471Z,9.61
2023-04-11T15:33:59.764Z,9.65
2023-04-11T15:36:47.189Z,9.88
2023-04-11T15:39:33.319Z,9.29
2023-04-11T15:42:19.084Z,9.36
2023-04-11T15:45:05.536Z,9.86
2023-04-11T15:47:51.447Z,9.36
2023-04-11T15:50:37.809Z,9.61
2023-04-11T15:53:24.457Z,9.66
2023-04-11T15:56:11.392Z,9.42
2023-04-11T15:58:57.354Z,9.99
2023-04-11T16:01:44.027Z,9.98
2023-04-11T16:04:30.666Z,9.49
2023-04-11T16:07:20.270Z,9.52
2023-04-11T16:10:08.639Z,9.53
2023-04-11T16:12:54.652Z,9.47
2023-04-11T16:15:40.448Z,9.48
2023-04-11T16:18:26.513Z,9.99
2023-04-11T16:21:16.331Z,9.47
2023-04-11T16:24:02.654Z,10.01
2023-04-11T16:26:48.755Z,9.34
2023-04-11T16:29:36.258Z,9.57
2023-04-11T16:32:23.225Z,9.95
2023-04-11T16:35:09.650Z,9.77
2023-04-11T16:37:55.561Z,9.39
2023-04-11T16:40:41.966Z,9.63
2023-04-11T16:43:27.737Z,9.37
2023-04-11T16:46:14.779Z,9.71
2023-04-11T16:49:01.065Z,10.09
2023-04-11T16:51:47.557Z,9.77
2023-04-11T16:54:34.346Z,9.43
2023-04-11T16:57:29.284Z,9.71
2023-04-11T17:00:16.820Z,9.64
2023-04-11T17:03:03.587Z,9.89
2023-04-11T17:05:54.874Z,9.82
2023-04-11T17:08:42.969Z,9.69
2023-04-11T17:11:28.899Z,9.18
2023-04-11T17:14:20.801Z,9.21
2023-04-11T17:17:10.409Z,9.78
2023-04-11T17:20:09.866Z,9.22
2023-04-11T17:22:58.238Z,9.40
2023-04-11T17:25:58.406Z,9.34
2023-04-11T17:28:44.895Z,9.16
2023-04-11T17:58:39.314Z,9.92
2023-04-11T18:24:14.968Z,9.62
2023-04-11T18:27:12.891Z,8.99
2023-04-11T18:30:13.136Z,8.84
2023-04-11T18:33:09.407Z,8.95
2023-04-11T18:36:04.229Z,9.74
2023-04-11T18:38:54.851Z,9.67
2023-04-11T18:41:48.416Z,9.39
2023-04-11T18:44:44.690Z,9.30
2023-04-11T18:47:48.429Z,9.45
2023-04-11T18:50:43.409Z,9.30
2023-04-11T18:53:32.531Z,9.77
2023-04-11T18:56:27.991Z,9.12
2023-04-11T18:59:18.444Z,9.48
2023-04-11T19:02:05.865Z,9.33
2023-04-11T19:04:55.633Z,9.29
2023-04-11T19:07:46.352Z,8.87
2023-04-11T19:10:32.756Z,9.80
2023-04-11T19:13:19.899Z,9.32
2023-04-11T19:16:07.692Z,9.44
2023-04-11T19:18:53.782Z,9.32
2023-04-11T19:21:40.678Z,9.43
2023-04-11T19:24:26.918Z,9.00
2023-04-11T19:27:14.145Z,8.95
2023-04-11T19:30:00.613Z,8.94
2023-04-11T19:32:48.043Z,9.23
2023-04-11T19:35:34.413Z,9.68
2023-04-11T19:38:22.006Z,9.22
2023-04-11T19:41:11.979Z,9.72
2023-04-11T19:43:59.070Z,8.96
2023-04-11T19:46:46.521Z,9.39
2023-04-11T19:49:33.000Z,9.69
2023-04-11T19:52:19.171Z,9.21
2023-04-11T19:55:06.326Z,9.34
2023-04-11T19:57:52.284Z,9.45
2023-04-11T20:00:38.838Z,8.83
2023-04-11T20:03:25.721Z,8.75
2023-04-11T20:06:13.934Z,9.29
2023-04-11T20:09:04.251Z,9.20
2023-04-11T20:11:51.221Z,9.23
2023-04-11T20:14:38.502Z,9.52
2023-04-11T20:17:26.182Z,9.01
2023-04-11T20:20:14.520Z,8.66
2023-04-11T20:23:04.994Z,8.66
2023-04-11T20:25:51.203Z,8.58
2023-04-11T20:28:38.211Z,9.05
2023-04-11T20:31:25.985Z,8.78
2023-04-11T20:34:12.343Z,8.68
2023-04-11T20:37:00.915Z,9.00
2023-04-11T20:39:51.690Z,8.82
2023-04-11T20:42:42.845Z,9.15
2023-04-11T20:45:31.126Z,8.62
2023-04-11T20:48:17.162Z,8.94
2023-04-11T20:51:04.074Z,8.77
2023-04-11T20:53:49.998Z,9.24
2023-04-11T20:56:36.723Z,8.87
2023-04-11T20:59:22.616Z,8.89
2023-04-11T21:02:08.633Z,9.13
2023-04-11T21:04:55.652Z,8.97
2023-04-11T21:07:42.316Z,9.27
2023-04-11T21:10:28.383Z,9.23
2023-04-11T21:13:14.365Z,9.06
2023-04-11T21:16:00.165Z,9.25
2023-04-11T21:18:46.519Z,9.26
2023-04-11T21:21:33.507Z,9.29
2023-04-11T21:24:19.778Z,9.06
2023-04-11T21:27:05.915Z,8.73
2023-04-11T21:29:52.386Z,8.71
2023-04-11T21:32:39.520Z,9.12
2023-04-11T21:35:26.164Z,9.28
2023-04-11T21:38:12.578Z,9.03
2023-04-11T21:40:59.054Z,9.28
2023-04-11T21:43:44.659Z,9.29
2023-04-11T21:46:32.350Z,8.88
2023-04-11T21:49:21.404Z,9.31
2023-04-11T21:52:08.874Z,9.33
2023-04-11T21:54:54.678Z,8.98
2023-04-11T21:57:41.196Z,8.93
2023-04-11T22:00:27.585Z,9.23
2023-04-11T22:03:18.075Z,9.23
2023-04-11T22:06:04.231Z,9.21
2023-04-11T22:08:51.466Z,9.30
2023-04-11T22:11:36.991Z,9.04
2023-04-11T22:14:27.159Z,9.08
2023-04-11T22:17:13.239Z,8.86
2023-04-11T22:19:59.606Z,9.21
2023-04-11T22:22:45.403Z,8.97
2023-04-11T22:25:33.056Z,8.75
2023-04-11T22:28:20.424Z,8.79
2023-04-11T22:31:06.715Z,8.87
2023-04-11T22:33:52.673Z,9.36
2023-04-11T22:36:38.765Z,9.36
2023-04-11T22:39:25.515Z,8.87
2023-04-11T22:42:11.732Z,9.32
2023-04-11T22:44:57.403Z,8.65
2023-04-11T22:47:47.318Z,9.33
2023-04-11T22:50:37.358Z,9.33
2023-04-11T22:53:25.084Z,9.16
2023-04-11T22:56:11.452Z,8.64
2023-04-11T22:58:57.546Z,9.02
2023-04-11T23:01:44.749Z,9.30
2023-04-11T23:04:32.387Z,9.33
2023-04-11T23:07:18.431Z,9.12
2023-04-11T23:10:06.198Z,9.11
2023-04-11T23:12:52.359Z,8.89
2023-04-11T23:15:39.497Z,9.02
2023-04-11T23:18:25.378Z,9.29
2023-04-11T23:21:13.327Z,9.31
2023-04-11T23:23:59.372Z,8.93
2023-04-11T23:26:45.305Z,9.37
2023-04-11T23:29:31.322Z,9.01
2023-04-11T23:32:19.086Z,9.28
2023-04-11T23:35:06.394Z,9.17
2023-04-11T23:37:52.761Z,9.01
2023-04-11T23:40:38.767Z,8.75
2023-04-11T23:43:25.123Z,9.19
2023-04-11T23:46:11.887Z,9.03
2023-04-11T23:48:58.013Z,9.27
2023-04-11T23:51:43.828Z,9.27
2023-04-11T23:54:30.434Z,8.56
2023-04-11T23:57:17.196Z,8.95
